Time;durP1;ratioP1;P1;durP2;ratioP2;P2;SDS_P1;SDS_P2;PMS_P1;PMS_P2;Temp;Humidity;BMP_temperature;BMP_pressure;BME280_temperature;BME280_humidity;BME280_pressure;Samples;Min_cycle;Max_cycle;Signal;HPM_P1;HPM_P2
2023/04/29 00:00:05;;;;;;;8.20;6.70;;;;;;;;;;5074287;28;20048;-61
2023/04/29 00:02:32;;;;;;;7.30;6.50;;;;;;;;;;5073880;28;20495;-61
2023/04/29 00:04:59;;;;;;;11.75;6.88;;;;;;;;;;5074018;28;20048;-62
2023/04/29 00:07:25;;;;;;;10.20;6.97;;;;;;;;;;5074142;28;20117;-61
2023/04/29 00:09:52;;;;;;;9.10;6.75;;;;;;;;;;5073767;28;20055;-61
2023/04/29 00:12:19;;;;;;;11.25;7.82;;;;;;;;;;5073719;28;20048;-61
2023/04/29 00:14:45;;;;;;;11.98;8.82;;;;;;;;;;5073853;28;20055;-61
2023/04/29 00:17:12;;;;;;;10.80;8.32;;;;;;;;;;5073844;28;20040;-62
2023/04/29 00:19:38;;;;;;;9.65;8.27;;;;;;;;;;5074002;28;20075;-61
2023/04/29 00:22:04;;;;;;;10.90;8.95;;;;;;;;;;5073574;28;20459;-62
2023/04/29 00:24:31;;;;;;;15.50;11.60;;;;;;;;;;5073672;28;20052;-61
2023/04/29 00:26:58;;;;;;;20.48;15.00;;;;;;;;;;5073701;28;20075;-61
2023/04/29 00:29:24;;;;;;;13.63;9.82;;;;;;;;;;5073596;28;20044;-61
2023/04/29 00:31:51;;;;;;;11.48;8.75;;;;;;;;;;5073283;28;20053;-62
2023/04/29 00:34:17;;;;;;;11.57;8.50;;;;;;;;;;5073581;28;20055;-62
2023/04/29 00:36:43;;;;;;;9.73;8.05;;;;;;;;;;5073359;28;20052;-61
2023/04/29 00:39:10;;;;;;;9.38;7.28;;;;;;;;;;5073438;28;20372;-61
2023/04/29 00:41:39;;;;;;;8.32;7.13;;;;;;;;;;5071486;28;20140;-61
2023/04/29 00:44:06;;;;;;;12.40;8.63;;;;;;;;;;5073654;28;20421;-61
2023/04/29 00:46:33;;;;;;;17.25;11.60;;;;;;;;;;5073387;28;20079;-62
2023/04/29 00:49:00;;;;;;;22.83;15.40;;;;;;;;;;5073206;28;20502;-61
2023/04/29 00:51:27;;;;;;;12.90;9.00;;;;;;;;;;5073047;28;20037;-61
2023/04/29 00:53:53;;;;;;;11.00;7.57;;;;;;;;;;5073032;28;20048;-62
2023/04/29 00:56:20;;;;;;;9.73;7.80;;;;;;;;;;5073147;28;20045;-61
2023/04/29 00:58:49;;;;;;;10.05;7.93;;;;;;;;;;5072801;28;20435;-62
2023/04/29 01:01:15;;;;;;;10.48;7.65;;;;;;;;;;5072997;28;20054;-61
2023/04/29 01:03:42;;;;;;;10.07;7.57;;;;;;;;;;5072651;28;20049;-61
2023/04/29 01:06:28;;;;;;;8.30;7.28;;;;;;;;;;5072839;28;20450;-61
2023/04/29 01:09:04;;;;;;;10.48;7.95;;;;;;;;;;5072611;28;20131;-61
2023/04/29 01:11:38;;;;;;;8.82;7.43;;;;;;;;;;5071614;28;20399;-61
2023/04/29 01:14:06;;;;;;;10.52;8.05;;;;;;;;;;5072478;28;20510;-61
2023/04/29 01:17:01;;;;;;;8.95;7.95;;;;;;;;;;5072356;28;20496;-61
2023/04/29 01:19:39;;;;;;;10.73;8.20;;;;;;;;;;5035271;28;20050;-61
2023/04/29 01:22:06;;;;;;;21.27;15.27;;;;;;;;;;5072691;28;20064;-62
2023/04/29 01:24:32;;;;;;;45.47;31.25;;;;;;;;;;5072201;28;20094;-61
2023/04/29 01:27:04;;;;;;;45.08;30.23;;;;;;;;;;5072604;28;20050;-61
2023/04/29 01:29:43;;;;;;;32.90;23.33;;;;;;;;;;5072446;28;20052;-61
2023/04/29 01:32:16;;;;;;;19.52;14.10;;;;;;;;;;5072599;28;20311;-62
2023/04/29 01:34:53;;;;;;;12.60;9.18;;;;;;;;;;5072184;28;20052;-61
2023/04/29 01:37:38;;;;;;;11.85;9.05;;;;;;;;;;5072140;28;20053;-61
2023/04/29 01:40:14;;;;;;;10.98;8.45;;;;;;;;;;5072154;28;20044;-61
2023/04/29 01:42:50;;;;;;;12.18;9.35;;;;;;;;;;5072595;28;20052;-62
2023/04/29 01:45:17;;;;;;;11.07;8.95;;;;;;;;;;5072069;28;20047;-61
2023/04/29 01:47:43;;;;;;;11.70;8.48;;;;;;;;;;5072197;28;20048;-62
2023/04/29 01:50:10;;;;;;;11.23;8.55;;;;;;;;;;5072209;28;20136;-62
2023/04/29 01:52:36;;;;;;;11.40;8.05;;;;;;;;;;5071144;28;20052;-61
2023/04/29 01:55:03;;;;;;;9.68;7.70;;;;;;;;;;5071782;28;20060;-62
2023/04/29 01:57:29;;;;;;;8.98;7.07;;;;;;;;;;5071585;28;20048;-61
2023/04/29 01:59:56;;;;;;;8.82;7.78;;;;;;;;;;5071698;28;20939;-62
2023/04/29 02:02:24;;;;;;;8.98;7.40;;;;;;;;;;5071949;28;20045;-61
2023/04/29 02:04:50;;;;;;;9.30;7.53;;;;;;;;;;5071945;28;20056;-61
2023/04/29 02:07:17;;;;;;;9.90;7.88;;;;;;;;;;5063052;28;20102;-62
2023/04/29 02:09:43;;;;;;;9.43;7.75;;;;;;;;;;5070509;28;20048;-61
2023/04/29 02:12:09;;;;;;;9.45;6.72;;;;;;;;;;5071886;28;20056;-61
2023/04/29 02:14:36;;;;;;;9.90;7.60;;;;;;;;;;5071448;28;20054;-61
2023/04/29 02:17:03;;;;;;;9.23;8.23;;;;;;;;;;5071685;28;20126;-61
2023/04/29 02:19:29;;;;;;;9.02;7.57;;;;;;;;;;5070523;28;20054;-61
2023/04/29 02:21:56;;;;;;;8.65;7.75;;;;;;;;;;5071658;28;20210;-61
2023/04/29 02:24:22;;;;;;;8.20;6.75;;;;;;;;;;5071547;28;20047;-61
2023/04/29 02:26:48;;;;;;;10.23;7.93;;;;;;;;;;5071414;28;20049;-61
2023/04/29 02:29:15;;;;;;;10.38;8.38;;;;;;;;;;5071403;28;20059;-62
2023/04/29 02:31:41;;;;;;;11.23;9.13;;;;;;;;;;5071364;28;20051;-61
2023/04/29 02:34:08;;;;;;;8.75;7.43;;;;;;;;;;5071710;28;20088;-61
2023/04/29 02:36:34;;;;;;;11.38;8.13;;;;;;;;;;5071312;28;20510;-61
2023/04/29 02:39:01;;;;;;;9.15;7.55;;;;;;;;;;5071401;28;20059;-61
2023/04/29 02:41:27;;;;;;;9.25;6.97;;;;;;;;;;5071593;28;20055;-61
2023/04/29 02:43:53;;;;;;;10.05;7.35;;;;;;;;;;5071441;28;20132;-61
2023/04/29 02:46:20;;;;;;;8.40;7.18;;;;;;;;;;5071354;28;20057;-61
2023/04/29 02:48:46;;;;;;;9.77;7.32;;;;;;;;;;5071139;28;20045;-61
2023/04/29 02:51:13;;;;;;;11.63;7.05;;;;;;;;;;5071356;28;20091;-62
2023/04/29 02:53:39;;;;;;;8.13;6.82;;;;;;;;;;5071327;28;20063;-62
2023/04/29 02:56:06;;;;;;;8.18;7.07;;;;;;;;;;5071074;28;20048;-61
2023/04/29 02:58:33;;;;;;;7.90;6.72;;;;;;;;;;5071173;28;20171;-61
2023/04/29 03:00:59;;;;;;;7.70;6.90;;;;;;;;;;5071031;28;20415;-61
2023/04/29 03:03:25;;;;;;;7.65;6.85;;;;;;;;;;5071713;28;20051;-61
2023/04/29 03:05:52;;;;;;;8.80;7.63;;;;;;;;;;5075190;28;20041;-61
2023/04/29 03:08:18;;;;;;;8.35;7.28;;;;;;;;;;5075036;28;20051;-61
2023/04/29 03:10:45;;;;;;;8.32;7.53;;;;;;;;;;5075153;28;20092;-61
2023/04/29 03:13:12;;;;;;;9.88;7.85;;;;;;;;;;5074800;28;20579;-61
2023/04/29 03:15:38;;;;;;;9.07;7.50;;;;;;;;;;5074740;28;20526;-62
2023/04/29 03:18:04;;;;;;;9.25;7.18;;;;;;;;;;5060784;28;20072;-61
2023/04/29 03:20:31;;;;;;;8.68;6.90;;;;;;;;;;5074748;28;20041;-62
2023/04/29 03:22:59;;;;;;;8.10;6.80;;;;;;;;;;5074919;28;20127;-61
2023/04/29 03:25:27;;;;;;;8.02;7.22;;;;;;;;;;5075181;28;20059;-61
2023/04/29 03:27:53;;;;;;;9.82;7.63;;;;;;;;;;5074529;28;20144;-61
2023/04/29 03:30:20;;;;;;;7.63;6.82;;;;;;;;;;5074798;28;20056;-61
2023/04/29 03:32:46;;;;;;;10.02;7.53;;;;;;;;;;5074821;28;20076;-61
2023/04/29 03:35:13;;;;;;;10.80;7.75;;;;;;;;;;5074652;28;20052;-62
2023/04/29 03:37:43;;;;;;;8.82;7.55;;;;;;;;;;5074769;28;20071;-61
2023/04/29 03:40:10;;;;;;;16.65;9.57;;;;;;;;;;5074363;28;20041;-61
2023/04/29 03:42:37;;;;;;;15.98;10.77;;;;;;;;;;5074554;28;20512;-61
2023/04/29 03:45:04;;;;;;;15.00;10.85;;;;;;;;;;5074167;28;20488;-62
2023/04/29 03:47:30;;;;;;;14.48;10.13;;;;;;;;;;5070110;28;20049;-61
2023/04/29 03:49:56;;;;;;;16.33;10.90;;;;;;;;;;5071622;28;20127;-61
2023/04/29 03:52:23;;;;;;;15.00;9.57;;;;;;;;;;5074155;28;20119;-61
2023/04/29 03:54:49;;;;;;;13.20;10.00;;;;;;;;;;5074498;28;20395;-61
2023/04/29 03:57:15;;;;;;;14.23;9.63;;;;;;;;;;5073718;28;20419;-61
2023/04/29 03:59:42;;;;;;;14.45;9.85;;;;;;;;;;5074296;28;20051;-62
2023/04/29 04:02:08;;;;;;;12.52;9.18;;;;;;;;;;5074328;28;20123;-61
2023/04/29 04:04:35;;;;;;;11.30;8.60;;;;;;;;;;5073950;28;20052;-62
2023/04/29 04:07:02;;;;;;;11.18;8.70;;;;;;;;;;5073950;28;20470;-62
2023/04/29 04:09:29;;;;;;;13.73;9.23;;;;;;;;;;5074270;28;20798;-61
2023/04/29 04:11:55;;;;;;;12.98;9.40;;;;;;;;;;5073970;28;20041;-61
2023/04/29 04:14:22;;;;;;;17.90;9.32;;;;;;;;;;5073991;28;20056;-61
2023/04/29 04:16:49;;;;;;;23.42;10.95;;;;;;;;;;5072529;28;20056;-61
2023/04/29 04:19:16;;;;;;;19.77;11.18;;;;;;;;;;5073528;28;20395;-62
2023/04/29 04:21:42;;;;;;;28.75;11.45;;;;;;;;;;5073506;28;20122;-61
2023/04/29 04:24:08;;;;;;;22.55;10.85;;;;;;;;;;5073862;28;20045;-61
2023/04/29 04:26:35;;;;;;;20.52;10.23;;;;;;;;;;5073698;28;20051;-61
2023/04/29 04:29:01;;;;;;;20.95;10.75;;;;;;;;;;5073339;28;20586;-61
2023/04/29 04:31:28;;;;;;;25.42;10.63;;;;;;;;;;5073841;28;20055;-61
2023/04/29 04:33:55;;;;;;;22.08;10.48;;;;;;;;;;5073621;28;20135;-62
2023/04/29 04:36:21;;;;;;;27.30;11.60;;;;;;;;;;5073697;28;20044;-61
2023/04/29 04:38:47;;;;;;;29.45;11.57;;;;;;;;;;5073360;28;20049;-61
2023/04/29 04:41:14;;;;;;;28.17;11.80;;;;;;;;;;5073496;28;20045;-61
2023/04/29 04:43:41;;;;;;;27.63;11.27;;;;;;;;;;5073179;28;20268;-62
2023/04/29 04:46:10;;;;;;;36.90;12.48;;;;;;;;;;5073064;28;20037;-61
2023/04/29 04:48:37;;;;;;;36.72;13.50;;;;;;;;;;5073372;28;20114;-61
2023/04/29 04:51:07;;;;;;;23.88;11.85;;;;;;;;;;5073174;28;20040;-61
2023/04/29 04:53:34;;;;;;;54.45;14.90;;;;;;;;;;5073200;28;20052;-61
2023/04/29 04:56:01;;;;;;;53.22;15.10;;;;;;;;;;5072873;28;20518;-61
2023/04/29 04:58:27;;;;;;;32.08;14.07;;;;;;;;;;5072812;28;20063;-61
2023/04/29 05:00:53;;;;;;;31.30;15.70;;;;;;;;;;5072979;28;20498;-61
2023/04/29 05:03:20;;;;;;;31.10;14.10;;;;;;;;;;5072630;28;20442;-61
2023/04/29 05:05:52;;;;;;;33.10;14.60;;;;;;;;;;5073215;28;20053;-61
2023/04/29 05:08:18;;;;;;;28.83;14.38;;;;;;;;;;5072702;28;20047;-61
2023/04/29 05:10:44;;;;;;;28.40;12.95;;;;;;;;;;5072704;28;20049;-61
2023/04/29 05:13:11;;;;;;;24.15;12.32;;;;;;;;;;5072562;28;20063;-61
2023/04/29 05:15:37;;;;;;;28.48;14.18;;;;;;;;;;5072526;28;20052;-62
2023/04/29 05:18:03;;;;;;;38.55;16.05;;;;;;;;;;5072431;28;20055;-61
2023/04/29 05:20:30;;;;;;;29.55;15.68;;;;;;;;;;5072744;28;20040;-61
2023/04/29 05:22:56;;;;;;;29.13;14.57;;;;;;;;;;5072606;28;20144;-61
2023/04/29 05:25:23;;;;;;;20.75;14.63;;;;;;;;;;5072264;28;20040;-61
2023/04/29 05:27:50;;;;;;;20.55;14.15;;;;;;;;;;5072216;28;20059;-61
2023/04/29 05:30:17;;;;;;;18.67;13.32;;;;;;;;;;5072486;28;20132;-61
2023/04/29 05:32:44;;;;;;;18.90;13.73;;;;;;;;;;5072572;28;20040;-62
2023/04/29 05:35:11;;;;;;;18.20;13.15;;;;;;;;;;5072154;28;20511;-61
2023/04/29 05:37:37;;;;;;;22.20;13.32;;;;;;;;;;5072430;28;20079;-61
2023/04/29 05:40:04;;;;;;;22.05;14.27;;;;;;;;;;5072195;28;20044;-61
2023/04/29 05:42:30;;;;;;;25.65;15.38;;;;;;;;;;5072248;28;20080;-61
2023/04/29 05:44:56;;;;;;;20.85;13.68;;;;;;;;;;5072315;28;20055;-61
2023/04/29 05:47:23;;;;;;;19.65;13.93;;;;;;;;;;5071863;28;20050;-61
2023/04/29 05:49:49;;;;;;;19.67;13.10;;;;;;;;;;5072153;28;20057;-61
2023/04/29 05:52:16;;;;;;;20.17;13.45;;;;;;;;;;5071968;28;20106;-61
2023/04/29 05:54:43;;;;;;;19.58;13.82;;;;;;;;;;5071832;28;20048;-61
2023/04/29 05:57:09;;;;;;;21.83;13.75;;;;;;;;;;5071913;28;20066;-62
2023/04/29 05:59:35;;;;;;;22.23;13.98;;;;;;;;;;5071969;28;20048;-61
2023/04/29 06:02:02;;;;;;;20.65;13.48;;;;;;;;;;5072090;28;20044;-61
2023/04/29 06:04:28;;;;;;;18.95;13.02;;;;;;;;;;5071871;28;20131;-61
2023/04/29 06:06:55;;;;;;;20.63;14.00;;;;;;;;;;5072002;28;20044;-61
2023/04/29 06:09:25;;;;;;;24.83;14.02;;;;;;;;;;5071872;28;20538;-61
2023/04/29 06:11:53;;;;;;;20.65;12.60;;;;;;;;;;5071652;28;20586;-61
2023/04/29 06:14:20;;;;;;;28.92;15.23;;;;;;;;;;5071533;28;20079;-61
2023/04/29 06:16:47;;;;;;;27.40;15.40;;;;;;;;;;5071763;28;20049;-61
2023/04/29 06:19:14;;;;;;;;;;;;;;;;;;5071833;28;20048;-62
2023/04/29 06:21:40;;;;;;;25.92;15.07;;;;;;;;;;5071480;28;19924;-61
2023/04/29 06:24:06;;;;;;;29.88;15.55;;;;;;;;;;5071733;28;20400;-61
2023/04/29 06:26:33;;;;;;;31.77;16.25;;;;;;;;;;5071676;28;20040;-61
2023/04/29 06:28:59;;;;;;;33.55;15.90;;;;;;;;;;5071439;28;20063;-61
2023/04/29 06:31:26;;;;;;;34.15;17.45;;;;;;;;;;5071676;28;20055;-61
2023/04/29 06:33:53;;;;;;;29.47;16.53;;;;;;;;;;5071326;28;20053;-62
2023/04/29 06:36:20;;;;;;;34.70;17.33;;;;;;;;;;5071677;28;20070;-62
2023/04/29 06:38:46;;;;;;;35.72;18.17;;;;;;;;;;5072319;28;20045;-61
2023/04/29 06:41:12;;;;;;;39.63;18.90;;;;;;;;;;5075429;28;20051;-61
2023/04/29 06:43:39;;;;;;;45.97;19.00;;;;;;;;;;5075330;28;20049;-62
2023/04/29 06:46:06;;;;;;;40.80;19.20;;;;;;;;;;5075478;28;20055;-61
2023/04/29 06:48:32;;;;;;;75.72;21.02;;;;;;;;;;5075700;28;20067;-61
2023/04/29 06:50:58;;;;;;;57.17;20.70;;;;;;;;;;5075547;28;20058;-61
2023/04/29 06:53:25;;;;;;;41.95;20.17;;;;;;;;;;5075280;28;20053;-61
2023/04/29 06:55:51;;;;;;;51.53;19.55;;;;;;;;;;5075083;28;20052;-62
2023/04/29 06:58:18;;;;;;;51.60;21.48;;;;;;;;;;5074995;28;20063;-61
2023/04/29 07:00:45;;;;;;;56.97;20.40;;;;;;;;;;5075135;28;20492;-61
2023/04/29 07:03:12;;;;;;;53.42;19.70;;;;;;;;;;5075141;28;20052;-61
2023/04/29 07:05:40;;;;;;;51.30;19.43;;;;;;;;;;5075106;28;20099;-61
2023/04/29 07:08:07;;;;;;;40.67;19.42;;;;;;;;;;5075069;28;20281;-61
2023/04/29 07:10:33;;;;;;;40.03;19.33;;;;;;;;;;5075061;28;20128;-61
2023/04/29 07:13:00;;;;;;;52.40;21.48;;;;;;;;;;5075171;28;20040;-61
2023/04/29 07:15:27;;;;;;;42.75;19.60;;;;;;;;;;5074876;28;20083;-61
2023/04/29 07:17:53;;;;;;;41.85;20.35;;;;;;;;;;5074995;28;20049;-61
2023/04/29 07:20:19;;;;;;;36.90;19.92;;;;;;;;;;5074736;28;20098;-61
2023/04/29 07:22:47;;;;;;;42.25;20.45;;;;;;;;;;5074700;28;20048;-61
2023/04/29 07:25:14;;;;;;;41.08;20.25;;;;;;;;;;5074512;28;20040;-61
2023/04/29 07:27:40;;;;;;;36.35;19.67;;;;;;;;;;5074917;28;20053;-61
2023/04/29 07:30:07;;;;;;;35.03;20.23;;;;;;;;;;5074389;28;20059;-61
2023/04/29 07:32:34;;;;;;;27.03;19.73;;;;;;;;;;5074565;28;20062;-61
2023/04/29 07:35:00;;;;;;;31.75;20.17;;;;;;;;;;5074529;28;20479;-61
2023/04/29 07:37:26;;;;;;;32.78;19.65;;;;;;;;;;5074417;28;20050;-61
2023/04/29 07:39:53;;;;;;;26.95;18.17;;;;;;;;;;5074623;28;20506;-61
2023/04/29 07:42:19;;;;;;;27.88;19.83;;;;;;;;;;5074202;28;20403;-61
2023/04/29 07:44:46;;;;;;;24.20;17.40;;;;;;;;;;5074328;28;20048;-62
2023/04/29 07:47:12;;;;;;;22.73;17.65;;;;;;;;;;5074198;28;20045;-61
2023/04/29 07:49:38;;;;;;;23.55;17.92;;;;;;;;;;5074487;28;20051;-61
2023/04/29 07:52:06;;;;;;;22.40;17.38;;;;;;;;;;5074099;28;20058;-61
2023/04/29 07:54:32;;;;;;;24.02;18.65;;;;;;;;;;5074343;28;20052;-61
2023/04/29 07:57:00;;;;;;;21.88;17.83;;;;;;;;;;5074335;28;20411;-61
2023/04/29 07:59:26;;;;;;;24.13;18.15;;;;;;;;;;5073812;28;20491;-61
2023/04/29 08:01:53;;;;;;;22.70;19.30;;;;;;;;;;5074162;28;20044;-61
2023/04/29 08:04:19;;;;;;;22.83;18.52;;;;;;;;;;5073904;28;20051;-61
2023/04/29 08:06:46;;;;;;;24.55;19.25;;;;;;;;;;5074001;28;20053;-61
2023/04/29 08:09:12;;;;;;;24.83;20.08;;;;;;;;;;5073861;28;20059;-61
2023/04/29 08:11:39;;;;;;;23.33;18.92;;;;;;;;;;5074136;28;20238;-61
2023/04/29 08:14:05;;;;;;;22.10;18.00;;;;;;;;;;5073797;28;20050;-61
2023/04/29 08:16:32;;;;;;;26.02;20.17;;;;;;;;;;5073982;28;20052;-61
2023/04/29 08:18:58;;;;;;;25.63;20.25;;;;;;;;;;5065416;28;20045;-61
2023/04/29 08:21:26;;;;;;;24.02;20.33;;;;;;;;;;5068410;28;20044;-61
2023/04/29 08:23:53;;;;;;;27.05;19.88;;;;;;;;;;5073905;28;20082;-62
2023/04/29 08:26:19;;;;;;;30.70;20.45;;;;;;;;;;5073832;28;20045;-61
2023/04/29 08:28:47;;;;;;;29.13;20.90;;;;;;;;;;5073481;28;20231;-61
2023/04/29 08:31:19;;;;;;;24.80;19.40;;;;;;;;;;5073744;28;20127;-62
2023/04/29 08:33:46;;;;;;;25.10;20.10;;;;;;;;;;5072586;28;20106;-61
2023/04/29 08:36:13;;;;;;;24.38;19.95;;;;;;;;;;5073549;28;20053;-61
2023/04/29 08:38:39;;;;;;;24.20;19.33;;;;;;;;;;5066070;28;20055;-61
2023/04/29 08:41:08;;;;;;;24.17;20.02;;;;;;;;;;5073269;28;20502;-61
2023/04/29 08:43:39;;;;;;;24.92;20.88;;;;;;;;;;5070159;28;20055;-61
2023/04/29 08:46:06;;;;;;;27.88;21.73;;;;;;;;;;5073536;28;20064;-62
2023/04/29 08:48:33;;;;;;;26.47;20.77;;;;;;;;;;5072434;28;20087;-62
2023/04/29 08:51:01;;;;;;;26.15;21.70;;;;;;;;;;5072778;28;20368;-61
2023/04/29 08:53:27;;;;;;;;;;;;;;;;;;5073025;28;20442;-62
2023/04/29 08:55:54;;;;;;;27.17;22.33;;;;;;;;;;5063663;28;19935;-61
2023/04/29 08:58:20;;;;;;;28.92;23.60;;;;;;;;;;5072985;28;20052;-61
2023/04/29 09:00:48;;;;;;;29.77;23.37;;;;;;;;;;5072415;28;20051;-64
2023/04/29 09:03:16;;;;;;;30.48;22.90;;;;;;;;;;5071955;28;20052;-64
2023/04/29 09:05:48;;;;;;;31.67;25.20;;;;;;;;;;5042470;28;20051;-62
2023/04/29 09:08:15;;;;;;;29.13;23.23;;;;;;;;;;5072300;28;20135;-62
2023/04/29 09:10:42;;;;;;;31.67;25.80;;;;;;;;;;5054300;28;20145;-62
2023/04/29 09:13:08;;;;;;;30.42;25.55;;;;;;;;;;5052101;28;20045;-62
2023/04/29 09:15:41;;;;;;;28.75;24.17;;;;;;;;;;5052718;28;20412;-62
2023/04/29 09:18:08;;;;;;;29.83;24.55;;;;;;;;;;5058659;28;20055;-61
2023/04/29 09:20:34;;;;;;;29.83;23.83;;;;;;;;;;5071254;28;20045;-61
2023/04/29 09:23:04;;;;;;;28.95;23.02;;;;;;;;;;5072485;28;20105;-60
2023/04/29 09:25:31;;;;;;;30.75;24.95;;;;;;;;;;5072748;28;20056;-61
2023/04/29 09:27:57;;;;;;;26.40;22.88;;;;;;;;;;5072266;28;20044;-61
2023/04/29 09:30:25;;;;;;;29.00;24.33;;;;;;;;;;5071776;28;20052;-61
2023/04/29 09:33:08;;;;;;;30.27;25.27;;;;;;;;;;5072348;28;20074;-61
2023/04/29 09:35:35;;;;;;;29.65;24.23;;;;;;;;;;5071915;28;20087;-64
2023/04/29 09:38:13;;;;;;;28.42;23.80;;;;;;;;;;5072184;28;20098;-61
2023/04/29 09:40:40;;;;;;;30.27;24.67;;;;;;;;;;5071594;28;20049;-62
2023/04/29 09:43:23;;;;;;;30.58;24.10;;;;;;;;;;5071477;28;20048;-61
2023/04/29 09:45:50;;;;;;;27.90;24.08;;;;;;;;;;5072426;28;20384;-61
2023/04/29 09:48:17;;;;;;;27.17;23.25;;;;;;;;;;5072117;28;20044;-61
2023/04/29 09:50:57;;;;;;;29.48;23.17;;;;;;;;;;5072113;28;20044;-61
2023/04/29 09:53:28;;;;;;;26.38;22.65;;;;;;;;;;5071892;28;20522;-61
2023/04/29 09:55:57;;;;;;;26.05;22.00;;;;;;;;;;5064284;28;20049;-61
2023/04/29 09:58:28;;;;;;;28.85;24.13;;;;;;;;;;5045464;28;20061;-61
2023/04/29 10:00:58;;;;;;;26.83;23.33;;;;;;;;;;5051254;28;20052;-61
2023/04/29 10:03:25;;;;;;;25.90;21.08;;;;;;;;;;5051054;28;20047;-61
2023/04/29 10:05:52;;;;;;;;;;;;;;;;;;5051569;28;20456;-61
2023/04/29 10:08:18;;;;;;;37.83;22.48;;;;;;;;;;5051384;28;19927;-61
2023/04/29 10:10:46;;;;;;;24.60;21.63;;;;;;;;;;5051659;28;20138;-61
2023/04/29 10:13:12;;;;;;;;;;;;;;;;;;5048640;28;20059;-62
2023/04/29 10:15:42;;;;;;;27.00;23.27;;;;;;;;;;5050788;28;20004;-61
2023/04/29 10:18:16;;;;;;;27.15;23.73;;;;;;;;;;5041419;28;20087;-61
2023/04/29 10:20:45;;;;;;;27.63;23.60;;;;;;;;;;5051203;28;20045;-61
2023/04/29 10:23:13;;;;;;;27.60;23.67;;;;;;;;;;5051169;28;20423;-61
2023/04/29 10:25:41;;;;;;;28.75;22.92;;;;;;;;;;5051372;28;20049;-61
2023/04/29 10:28:11;;;;;;;27.15;24.00;;;;;;;;;;5050950;28;20055;-62
2023/04/29 10:30:38;;;;;;;28.85;24.92;;;;;;;;;;5051166;28;20152;-61
2023/04/29 10:33:06;;;;;;;28.35;23.92;;;;;;;;;;5051114;28;20045;-61
2023/04/29 10:35:33;;;;;;;26.77;23.08;;;;;;;;;;5051050;28;20053;-61
2023/04/29 10:38:00;;;;;;;26.10;23.35;;;;;;;;;;5051034;28;20048;-61
2023/04/29 10:40:30;;;;;;;27.23;23.30;;;;;;;;;;5046043;28;20055;-61
2023/04/29 10:42:56;;;;;;;35.08;23.60;;;;;;;;;;5070617;28;20059;-61
2023/04/29 10:45:31;;;;;;;24.07;21.50;;;;;;;;;;5070997;28;20056;-62
2023/04/29 10:48:00;;;;;;;25.35;22.67;;;;;;;;;;5070753;28;20048;-62
2023/04/29 10:50:47;;;;;;;24.92;22.10;;;;;;;;;;5070945;28;20107;-61
2023/04/29 10:53:14;;;;;;;25.27;22.58;;;;;;;;;;5048421;28;20052;-62
2023/04/29 10:55:40;;;;;;;26.15;23.55;;;;;;;;;;5070884;28;20167;-62
2023/04/29 10:58:26;;;;;;;24.40;21.80;;;;;;;;;;5070440;28;20059;-61
2023/04/29 11:00:52;;;;;;;24.77;22.13;;;;;;;;;;5069789;28;20148;-62
2023/04/29 11:03:37;;;;;;;25.92;23.23;;;;;;;;;;5070107;28;20045;-61
2023/04/29 11:06:08;;;;;;;24.65;22.15;;;;;;;;;;5070533;28;20076;-62
2023/04/29 11:08:38;;;;;;;24.95;22.35;;;;;;;;;;5061026;28;20045;-62
2023/04/29 11:11:08;;;;;;;22.73;20.45;;;;;;;;;;5070371;28;20511;-62
2023/04/29 11:13:38;;;;;;;21.73;19.42;;;;;;;;;;5068565;28;20058;-62
2023/04/29 11:16:06;;;;;;;24.95;22.45;;;;;;;;;;5070647;28;20139;-63
2023/04/29 11:18:33;;;;;;;23.50;21.27;;;;;;;;;;5070830;28;20642;-61
2023/04/29 11:21:06;;;;;;;22.40;20.15;;;;;;;;;;5070527;28;20055;-62
2023/04/29 11:23:34;;;;;;;21.58;19.27;;;;;;;;;;5070732;28;20098;-62
2023/04/29 11:26:00;;;;;;;;;;;;;;;;;;5073939;28;20127;-61
2023/04/29 11:28:27;;;;;;;21.20;19.02;;;;;;;;;;5074810;28;19920;-61
2023/04/29 11:30:55;;;;;;;20.90;18.73;;;;;;;;;;5074476;28;20066;-61
2023/04/29 11:33:26;;;;;;;20.55;18.50;;;;;;;;;;5074200;28;20060;-63
2023/04/29 11:35:53;;;;;;;19.35;17.38;;;;;;;;;;5074562;28;20056;-63
2023/04/29 11:38:23;;;;;;;20.10;18.05;;;;;;;;;;5074199;28;20088;-64
2023/04/29 11:40:50;;;;;;;20.45;18.33;;;;;;;;;;5073222;28;20044;-64
2023/04/29 11:43:19;;;;;;;19.90;17.52;;;;;;;;;;5073353;28;20050;-61
2023/04/29 11:45:46;;;;;;;19.60;17.67;;;;;;;;;;5073141;28;20052;-62
2023/04/29 11:48:12;;;;;;;;;;;;;;;;;;5073471;28;20053;-63
2023/04/29 11:50:40;;;;;;;19.73;17.75;;;;;;;;;;5073786;28;19920;-61
2023/04/29 11:53:07;;;;;;;19.52;17.63;;;;;;;;;;5073621;28;20055;-62
2023/04/29 11:55:33;;;;;;;17.70;16.13;;;;;;;;;;5059449;28;20139;-62
2023/04/29 11:57:59;;;;;;;19.27;17.38;;;;;;;;;;5073218;28;20140;-62
2023/04/29 12:00:26;;;;;;;17.95;16.15;;;;;;;;;;5073692;28;20053;-61
2023/04/29 12:02:52;;;;;;;18.30;16.60;;;;;;;;;;5073581;28;20040;-61
2023/04/29 12:05:19;;;;;;;;;;;;;;;;;;5073786;28;20044;-61
2023/04/29 12:07:48;;;;;;;18.10;16.33;;;;;;;;;;5073368;28;19928;-62
2023/04/29 12:10:14;;;;;;;16.90;15.40;;;;;;;;;;5073307;28;20052;-62
2023/04/29 12:12:42;;;;;;;17.80;16.10;;;;;;;;;;5071209;28;20467;-61
2023/04/29 12:15:09;;;;;;;16.35;14.75;;;;;;;;;;5073461;28;20045;-61
2023/04/29 12:17:36;;;;;;;17.60;15.90;;;;;;;;;;5073524;28;20048;-61
2023/04/29 12:20:03;;;;;;;17.95;16.15;;;;;;;;;;5073775;28;20048;-61
2023/04/29 12:22:32;;;;;;;18.73;16.92;;;;;;;;;;5073064;28;20502;-61
2023/04/29 12:24:59;;;;;;;19.83;17.85;;;;;;;;;;5073246;28;20127;-62
2023/04/29 12:27:25;;;;;;;19.38;17.45;;;;;;;;;;5073332;28;20400;-61
2023/04/29 12:29:52;;;;;;;18.27;16.47;;;;;;;;;;5073142;28;20135;-62
2023/04/29 12:32:21;;;;;;;18.20;16.40;;;;;;;;;;5072318;28;20066;-62
2023/04/29 12:34:49;;;;;;;17.38;15.57;;;;;;;;;;5072914;28;20495;-62
2023/04/29 12:37:16;;;;;;;16.58;14.98;;;;;;;;;;5071704;28;20048;-61
2023/04/29 12:39:42;;;;;;;15.00;13.60;;;;;;;;;;5072653;28;20052;-62
2023/04/29 12:42:13;;;;;;;14.32;13.02;;;;;;;;;;5072675;28;20745;-62
2023/04/29 12:44:40;;;;;;;13.90;12.50;;;;;;;;;;5066123;28;20053;-62
2023/04/29 12:47:08;;;;;;;14.35;12.88;;;;;;;;;;5058881;28;20044;-62
2023/04/29 12:49:35;;;;;;;14.82;13.52;;;;;;;;;;5052679;28;20055;-62
2023/04/29 12:52:03;;;;;;;14.23;12.93;;;;;;;;;;5058204;28;20044;-62
2023/04/29 12:54:29;;;;;;;14.38;13.05;;;;;;;;;;5072465;28;20523;-62
2023/04/29 12:56:56;;;;;;;13.02;11.93;;;;;;;;;;5071257;28;20048;-62
2023/04/29 12:59:23;;;;;;;11.38;10.38;;;;;;;;;;5071968;28;20056;-62
2023/04/29 13:01:49;;;;;;;;;;;;;;;;;;5072930;28;20062;-61
2023/04/29 13:04:15;;;;;;;11.40;10.43;;;;;;;;;;5072249;28;19920;-61
2023/04/29 13:06:42;;;;;;;10.30;9.30;;;;;;;;;;5072125;28;20055;-62
2023/04/29 13:09:10;;;;;;;;;;;;;;;;;;5072430;28;20052;-61
2023/04/29 13:11:43;;;;;;;9.80;9.00;;;;;;;;;;5072424;28;19967;-61
2023/04/29 13:14:10;;;;;;;10.48;9.68;;;;;;;;;;5070244;28;20049;-62
2023/04/29 13:16:36;;;;;;;9.70;8.88;;;;;;;;;;5071816;28;20064;-62
2023/04/29 13:19:03;;;;;;;10.40;9.60;;;;;;;;;;5071191;28;20508;-61
2023/04/29 13:21:49;;;;;;;10.95;9.93;;;;;;;;;;5071783;28;20052;-61
2023/04/29 13:24:17;;;;;;;8.45;7.75;;;;;;;;;;5072275;28;20119;-61
2023/04/29 13:26:44;;;;;;;7.22;6.68;;;;;;;;;;5072168;28;20053;-62
2023/04/29 13:29:11;;;;;;;7.20;6.63;;;;;;;;;;5071182;28;20134;-62
2023/04/29 13:31:37;;;;;;;8.25;7.60;;;;;;;;;;5071726;28;20087;-62
2023/04/29 13:34:04;;;;;;;6.93;6.43;;;;;;;;;;5071856;28;20059;-62
2023/04/29 13:36:30;;;;;;;6.72;6.13;;;;;;;;;;5071955;28;20411;-62
2023/04/29 13:38:57;;;;;;;6.22;5.80;;;;;;;;;;5071562;28;20665;-62
2023/04/29 13:41:26;;;;;;;5.40;4.90;;;;;;;;;;5071780;28;20554;-62
2023/04/29 13:43:52;;;;;;;7.20;6.15;;;;;;;;;;5070346;28;20045;-62
2023/04/29 13:46:23;;;;;;;7.50;6.80;;;;;;;;;;5055570;28;20048;-61
2023/04/29 13:48:50;;;;;;;8.35;7.75;;;;;;;;;;5071329;28;20143;-62
2023/04/29 13:51:19;;;;;;;8.43;7.75;;;;;;;;;;5052241;28;20079;-62
2023/04/29 13:54:06;;;;;;;7.47;6.88;;;;;;;;;;5051227;28;20523;-61
2023/04/29 13:56:35;;;;;;;8.10;7.50;;;;;;;;;;5070402;28;20044;-61
2023/04/29 13:59:04;;;;;;;7.78;7.18;;;;;;;;;;5071137;28;20518;-61
2023/04/29 14:01:34;;;;;;;8.90;8.20;;;;;;;;;;5071119;28;20056;-62
2023/04/29 14:04:03;;;;;;;7.53;6.82;;;;;;;;;;5071276;28;20045;-61
2023/04/29 14:06:31;;;;;;;6.97;6.45;;;;;;;;;;5071207;28;20044;-62
2023/04/29 14:08:58;;;;;;;7.13;6.63;;;;;;;;;;5071237;28;20044;-62
2023/04/29 14:11:26;;;;;;;9.48;8.77;;;;;;;;;;5070979;28;20053;-61
2023/04/29 14:13:52;;;;;;;9.27;8.55;;;;;;;;;;5069481;28;20131;-61
2023/04/29 14:16:19;;;;;;;10.02;9.23;;;;;;;;;;5071198;28;20569;-62
2023/04/29 14:18:45;;;;;;;9.65;8.85;;;;;;;;;;5071352;28;20055;-62
2023/04/29 14:21:12;;;;;;;8.80;8.10;;;;;;;;;;5071035;28;20429;-61
2023/04/29 14:23:40;;;;;;;9.48;8.55;;;;;;;;;;5070952;28;20539;-62
2023/04/29 14:26:06;;;;;;;10.82;9.90;;;;;;;;;;5071340;28;20131;-61
2023/04/29 14:28:56;;;;;;;11.00;9.98;;;;;;;;;;5071152;28;20052;-62
2023/04/29 14:31:23;;;;;;;10.23;9.35;;;;;;;;;;5071018;28;20127;-61